KMFI/MFI METAR and TAF weather

Enter ICAO airport designator
Station Type Date Time Source
KMFI METAR 2019/04/26 03:54 UTC NOAA

KMFI 260354Z AUTO 25004KT 3/4SM BR CLR 08/07 A2977 RMK AO2 SLP086 T00780067 TSNO $


Station Type Date Time Source
KMFI Decoded METAR 2019/04/26 03:54 UTC NOAA

MARSHFIELD MUNICIPAL AIRPORT, WI, United States (KMFI) 44-38N 90-11W 379M
Apr 25, 2019 - 11:54 PM EDT / 2019.04.26 0354 UTC
Wind: from the WSW (250 degrees) at 5 MPH (4 KT):0
Visibility: 3/4 mile(s):0
Sky conditions: clear
Weather: mist
Temperature: 46.0 F (7.8 C)
Dew Point: 44.1 F (6.7 C)
Relative Humidity: 92%
Pressure (altimeter): 29.77 in. Hg (1008 hPa)
ob: KMFI 260354Z AUTO 25004KT 3/4SM BR CLR 08/07 A2977 RMK AO2 SLP086 T00780067 TSNO
cycle: 4

Station Type Date Time Source
KMFI TAF UTC NOAA

Error!

Example: see airport list